Time;durP1;ratioP1;P1;durP2;ratioP2;P2;SDS_P1;SDS_P2;PMS_P1;PMS_P2;Temp;Humidity;BMP_temperature;BMP_pressure;BME280_temperature;BME280_humidity;BME280_pressure;Samples;Min_cycle;Max_cycle;Signal;HPM_P1;HPM_P2
2023/07/07 00:01:01;;;;;;;4.00;2.83;;;14.50;42.40;;;;;;5030999;28;20450;-71
2023/07/07 00:03:27;;;;;;;4.88;2.95;;;14.70;40.80;;;;;;5031313;28;20391;-72
2023/07/07 00:05:52;;;;;;;5.93;3.38;;;14.80;40.30;;;;;;5031162;28;20469;-70
2023/07/07 00:08:18;;;;;;;5.15;3.17;;;15.00;39.40;;;;;;5031075;28;20876;-71
2023/07/07 00:10:43;;;;;;;3.50;3.20;;;14.80;39.80;;;;;;5031042;28;20443;-70
2023/07/07 00:13:10;;;;;;;4.27;2.90;;;14.60;41.00;;;;;;5030775;28;20407;-71
2023/07/07 00:15:36;;;;;;;6.45;3.38;;;14.50;42.10;;;;;;5030751;28;20391;-72
2023/07/07 00:18:03;;;;;;;5.93;3.40;;;14.40;42.90;;;;;;5032343;28;20384;-72
2023/07/07 00:20:31;;;;;;;5.72;3.20;;;14.40;43.20;;;;;;5030609;28;20470;-71
2023/07/07 00:22:58;;;;;;;6.35;3.40;;;14.40;43.10;;;;;;5030738;28;20391;-71
2023/07/07 00:25:24;;;;;;;6.18;3.20;;;14.30;43.80;;;;;;5030521;28;20391;-71
2023/07/07 00:27:50;;;;;;;7.17;2.90;;;14.20;44.50;;;;;;5012577;28;20498;-71
2023/07/07 00:30:15;;;;;;;5.47;2.70;;;14.20;45.40;;;;;;5030538;28;20402;-70
2023/07/07 00:32:41;;;;;;;5.95;3.35;;;14.20;46.20;;;;;;5029900;28;20731;-70
2023/07/07 00:35:07;;;;;;;4.70;2.88;;;14.30;46.00;;;;;;5030282;28;20398;-70
2023/07/07 00:37:34;;;;;;;5.13;3.10;;;14.20;46.30;;;;;;5030100;28;20466;-70
2023/07/07 00:40:00;;;;;;;8.13;3.45;;;14.30;46.40;;;;;;5030192;28;20747;-71
2023/07/07 00:42:26;;;;;;;6.35;3.47;;;14.30;45.60;;;;;;5029988;28;20393;-72
2023/07/07 00:45:20;;;;;;;4.83;3.20;;;14.10;46.50;;;;;;5030331;28;20475;-71
2023/07/07 00:47:56;;;;;;;6.05;3.10;;;14.00;47.20;;;;;;5030159;28;20899;-71
2023/07/07 00:50:27;;;;;;;4.90;3.00;;;13.90;48.00;;;;;;5030378;28;20378;-72
2023/07/07 00:52:53;;;;;;;4.60;3.10;;;13.90;48.00;;;;;;5030194;28;20982;-72
2023/07/07 00:55:27;;;;;;;6.50;3.10;;;14.10;46.10;;;;;;5030141;28;20530;-71
2023/07/07 00:57:53;;;;;;;4.50;3.10;;;14.20;45.40;;;;;;5030108;28;20435;-71
2023/07/07 01:00:19;;;;;;;4.95;3.00;;;14.20;45.30;;;;;;5030498;28;20378;-71
2023/07/07 01:02:51;;;;;;;8.40;3.38;;;14.20;44.50;;;;;;5029731;28;20428;-71
2023/07/07 01:05:17;;;;;;;6.60;3.40;;;14.00;45.40;;;;;;5029435;28;20399;-71
2023/07/07 01:07:51;;;;;;;7.53;3.60;;;14.20;45.50;;;;;;5030178;28;20422;-71
2023/07/07 01:10:19;;;;;;;7.15;3.78;;;14.10;45.80;;;;;;5028863;28;20418;-72
2023/07/07 01:12:47;;;;;;;4.75;3.20;;;14.00;46.60;;;;;;5029956;28;20505;-71
2023/07/07 01:15:13;;;;;;;5.25;3.42;;;14.00;47.20;;;;;;5023621;28;20741;-70
2023/07/07 01:17:53;;;;;;;6.47;3.30;;;13.90;48.10;;;;;;5034251;28;20403;-71
2023/07/07 01:20:37;;;;;;;7.05;3.35;;;14.00;48.10;;;;;;5033773;28;20395;-72
2023/07/07 01:23:27;;;;;;;5.50;4.05;;;14.00;48.10;;;;;;5033575;28;20394;-73
2023/07/07 01:25:58;;;;;;;5.40;3.63;;;13.90;48.40;;;;;;5033789;28;20387;-73
2023/07/07 01:29:14;;;;;;;7.50;3.65;;;13.80;49.00;;;;;;5032832;28;20414;-71
2023/07/07 01:31:46;;;;;;;5.32;3.45;;;13.70;49.40;;;;;;5033039;28;20395;-71
2023/07/07 01:34:15;;;;;;;6.38;3.55;;;13.60;50.00;;;;;;5033500;28;20409;-71
2023/07/07 01:36:41;;;;;;;7.90;3.80;;;13.60;50.80;;;;;;5033249;28;20376;-69
2023/07/07 01:39:09;;;;;;;7.73;3.93;;;13.60;51.40;;;;;;5033297;28;20716;-71
2023/07/07 01:41:47;;;;;;;6.90;3.90;;;13.60;51.50;;;;;;5033083;28;20520;-71
2023/07/07 01:44:31;;;;;;;5.57;3.78;;;13.60;52.00;;;;;;5033433;28;20876;-71
2023/07/07 01:47:06;;;;;;;6.80;3.70;;;13.60;52.50;;;;;;5033268;28;20387;-72
2023/07/07 01:49:57;;;;;;;6.30;4.20;;;13.50;53.10;;;;;;5033121;28;20462;-71
2023/07/07 01:52:32;;;;;;;15.10;4.13;;;13.50;53.70;;;;;;5032896;28;20407;-71
2023/07/07 01:55:13;;;;;;;5.15;3.80;;;13.50;54.30;;;;;;5033135;28;20380;-71
2023/07/07 01:57:41;;;;;;;5.88;3.75;;;13.40;53.80;;;;;;5033074;28;20469;-72
2023/07/07 02:00:08;;;;;;;12.57;4.50;;;13.40;53.70;;;;;;5033407;28;20844;-70
2023/07/07 02:02:34;;;;;;;8.48;4.10;;;13.40;54.00;;;;;;5032520;28;20402;-70
2023/07/07 02:04:59;;;;;;;9.03;4.50;;;13.50;52.80;;;;;;5033133;28;20955;-69
2023/07/07 02:07:25;;;;;;;7.00;4.20;;;13.50;52.70;;;;;;5032809;28;20387;-70
2023/07/07 02:09:50;;;;;;;10.23;4.70;;;13.60;52.20;;;;;;5033050;28;20371;-70
2023/07/07 02:12:16;;;;;;;7.37;4.40;;;13.50;52.60;;;;;;5032822;28;20822;-70
2023/07/07 02:14:41;;;;;;;8.07;4.50;;;13.50;52.70;;;;;;5037015;28;20375;-70
2023/07/07 02:17:07;;;;;;;10.20;4.60;;;13.60;52.60;;;;;;5047789;28;20394;-71
2023/07/07 02:19:32;;;;;;;8.48;4.70;;;13.50;52.70;;;;;;5042242;28;20402;-71
2023/07/07 02:21:58;;;;;;;8.75;4.57;;;13.50;52.80;;;;;;5034056;28;20383;-71
2023/07/07 02:24:23;;;;;;;7.83;4.43;;;13.50;53.20;;;;;;5037338;28;20391;-71
2023/07/07 02:26:50;;;;;;;7.00;4.17;;;13.40;53.30;;;;;;5034550;28;20490;-71
2023/07/07 02:29:17;;;;;;;9.77;4.20;;;13.40;53.70;;;;;;5031591;28;20447;-70
2023/07/07 02:31:42;;;;;;;8.80;4.70;;;13.30;53.90;;;;;;5032133;28;20557;-71
2023/07/07 02:34:08;;;;;;;6.50;4.77;;;13.30;54.20;;;;;;5032344;28;20419;-71
2023/07/07 02:36:36;;;;;;;10.40;4.73;;;13.30;54.50;;;;;;5032293;28;20491;-70
2023/07/07 02:39:02;;;;;;;8.87;4.30;;;13.30;54.80;;;;;;5032189;28;20383;-70
2023/07/07 02:41:28;;;;;;;12.30;4.82;;;13.30;54.90;;;;;;5032349;28;20421;-71
2023/07/07 02:43:53;;;;;;;12.40;4.83;;;13.30;55.00;;;;;;5032477;28;20387;-71
2023/07/07 02:46:19;;;;;;;11.53;4.73;;;13.30;54.80;;;;;;5032238;28;20395;-71
2023/07/07 02:48:44;;;;;;;8.73;4.67;;;13.30;54.80;;;;;;5032431;28;20387;-70
2023/07/07 02:51:10;;;;;;;8.35;4.70;;;13.40;54.50;;;;;;5031904;28;20441;-70
2023/07/07 02:53:37;;;;;;;8.70;4.90;;;13.40;53.30;;;;;;5031967;28;20427;-70
2023/07/07 02:56:03;;;;;;;9.20;4.70;;;13.30;54.30;;;;;;5031799;28;20407;-70
2023/07/07 02:58:29;;;;;;;10.23;4.80;;;13.20;55.00;;;;;;5031808;28;20390;-70
2023/07/07 03:01:10;;;;;;;7.88;4.70;;;13.20;55.70;;;;;;5031372;28;20383;-70
2023/07/07 03:03:37;;;;;;;8.73;4.82;;;13.30;55.50;;;;;;5031889;28;20395;-70
2023/07/07 03:06:05;;;;;;;9.13;4.70;;;13.30;55.50;;;;;;5031875;28;20520;-71
2023/07/07 03:08:31;;;;;;;8.55;4.90;;;13.20;55.60;;;;;;5031616;28;20395;-70
2023/07/07 03:10:57;;;;;;;9.23;4.80;;;13.20;56.00;;;;;;5031469;28;20462;-69
2023/07/07 03:13:22;;;;;;;9.85;4.70;;;13.20;55.90;;;;;;5031809;28;20403;-71
2023/07/07 03:15:48;;;;;;;8.27;4.90;;;13.10;56.40;;;;;;5032172;28;20783;-71
2023/07/07 03:18:14;;;;;;;13.83;5.20;;;13.10;56.80;;;;;;5031961;28;20737;-70
2023/07/07 03:20:47;;;;;;;6.93;4.90;;;13.00;57.00;;;;;;5031386;28;20872;-70
2023/07/07 03:23:13;;;;;;;8.40;5.18;;;13.00;57.00;;;;;;5031445;28;20387;-69
2023/07/07 03:25:39;;;;;;;9.37;4.80;;;13.00;57.30;;;;;;5031469;28;20395;-70
2023/07/07 03:30:34;;;;;;;10.35;5.05;;;13.00;56.60;;;;;;4990887;28;20413;-74
2023/07/07 03:33:00;;;;;;;7.90;4.97;;;13.00;56.20;;;;;;4991887;28;20465;-73
2023/07/07 03:35:26;;;;;;;7.75;4.68;;;13.00;55.70;;;;;;4991545;28;20441;-73
2023/07/07 03:37:51;;;;;;;8.68;4.90;;;13.00;55.40;;;;;;4992138;28;20394;-74
2023/07/07 03:40:17;;;;;;;14.18;4.85;;;13.00;55.60;;;;;;4993761;28;20554;-74
2023/07/07 03:42:42;;;;;;;8.98;5.00;;;13.10;55.10;;;;;;4993668;28;20395;-73
2023/07/07 03:45:08;;;;;;;12.10;4.87;;;13.20;54.80;;;;;;4993906;28;20386;-74
2023/07/07 03:47:34;;;;;;;8.85;4.90;;;13.20;54.20;;;;;;4991993;28;20393;-73
2023/07/07 03:50:00;;;;;;;9.37;4.57;;;13.20;54.20;;;;;;4991615;28;20386;-73
2023/07/07 03:52:25;;;;;;;11.47;5.10;;;13.20;54.40;;;;;;4991371;28;20493;-75
2023/07/07 03:54:51;;;;;;;8.33;5.00;;;13.20;53.70;;;;;;4991544;28;20382;-74
2023/07/07 03:57:16;;;;;;;12.23;4.80;;;13.20;53.90;;;;;;4991629;28;20424;-74
2023/07/07 03:59:42;;;;;;;8.48;5.10;;;13.30;54.10;;;;;;4991505;28;20729;-75
2023/07/07 04:02:07;;;;;;;8.95;5.18;;;13.30;53.70;;;;;;4992361;28;20386;-75
2023/07/07 04:04:33;;;;;;;13.47;4.90;;;13.20;53.50;;;;;;4992219;28;20397;-73
2023/07/07 04:06:59;;;;;;;9.57;4.90;;;13.30;53.70;;;;;;4992959;28;20848;-73
2023/07/07 04:09:25;;;;;;;7.87;4.70;;;13.30;53.40;;;;;;4999728;28;20466;-74
2023/07/07 04:11:51;;;;;;;9.60;4.63;;;13.40;53.10;;;;;;5004458;28;20398;-74
2023/07/07 04:14:18;;;;;;;9.85;5.28;;;13.50;51.90;;;;;;4999208;28;20418;-73
2023/07/07 04:16:44;;;;;;;8.95;4.25;;;13.60;50.70;;;;;;5008951;28;20422;-74
2023/07/07 04:19:10;;;;;;;7.90;4.20;;;13.60;50.90;;;;;;5009127;28;20391;-73
2023/07/07 04:21:35;;;;;;;9.90;5.10;;;13.60;50.70;;;;;;4996552;28;20733;-73
2023/07/07 04:24:02;;;;;;;6.33;4.30;;;13.70;50.00;;;;;;4999963;28;20405;-74
2023/07/07 04:26:30;;;;;;;8.93;4.43;;;13.70;49.10;;;;;;4992739;28;20386;-73
2023/07/07 04:28:58;;;;;;;8.15;4.30;;;13.80;49.10;;;;;;4991725;28;20399;-74
2023/07/07 04:31:26;;;;;;;8.55;4.55;;;13.90;49.00;;;;;;4991676;28;20399;-73
2023/07/07 04:33:52;;;;;;;7.47;4.43;;;13.90;48.60;;;;;;4991745;28;20425;-73
2023/07/07 04:36:18;;;;;;;6.60;4.03;;;14.00;48.50;;;;;;4991688;28;20461;-74
2023/07/07 04:38:44;;;;;;;7.72;4.15;;;14.00;48.20;;;;;;4991158;28;20378;-73
2023/07/07 04:41:13;;;;;;;9.50;4.40;;;14.00;47.60;;;;;;4991463;28;20394;-75
2023/07/07 04:43:46;;;;;;;6.78;4.05;;;14.10;47.70;;;;;;4991384;28;20457;-75
2023/07/07 04:46:15;;;;;;;7.00;4.00;;;14.20;47.20;;;;;;4991410;28;20387;-74
2023/07/07 04:48:42;;;;;;;8.63;4.60;;;14.40;46.20;;;;;;4994026;28;20405;-74
2023/07/07 04:51:10;;;;;;;8.20;4.20;;;14.60;44.40;;;;;;4995315;28;20397;-73
2023/07/07 04:53:37;;;;;;;9.77;4.20;;;14.80;43.50;;;;;;4995152;28;20512;-76
2023/07/07 04:56:15;;;;;;;11.03;4.77;;;14.80;43.10;;;;;;4995681;28;20386;-75
2023/07/07 04:58:41;;;;;;;9.20;4.47;;;14.80;43.10;;;;;;4995649;28;20386;-74
2023/07/07 05:01:10;;;;;;;8.43;3.80;;;15.00;42.40;;;;;;4995552;28;20398;-73
2023/07/07 05:03:37;;;;;;;11.70;4.80;;;15.20;40.80;;;;;;5002007;28;20461;-73
2023/07/07 05:06:03;;;;;;;8.43;4.53;;;15.30;40.30;;;;;;5001884;28;20405;-74
2023/07/07 05:08:41;;;;;;;6.22;4.53;;;15.40;39.20;;;;;;5002455;28;20418;-73
2023/07/07 05:11:10;;;;;;;10.03;4.20;;;15.40;38.50;;;;;;5002488;28;20405;-74
2023/07/07 05:13:35;;;;;;;11.90;4.13;;;15.40;38.00;;;;;;5001774;28;20434;-73
2023/07/07 05:16:05;;;;;;;6.20;3.50;;;15.50;37.10;;;;;;5002244;28;20398;-75
2023/07/07 05:18:31;;;;;;;5.85;3.50;;;15.60;35.70;;;;;;4998142;28;20382;-74
2023/07/07 05:20:57;;;;;;;8.27;3.50;;;15.70;35.30;;;;;;4994980;28;20468;-73
2023/07/07 05:23:23;;;;;;;5.65;3.38;;;15.80;34.60;;;;;;4994819;28;20390;-74
2023/07/07 05:25:50;;;;;;;6.93;3.90;;;15.90;34.80;;;;;;4994822;28;20931;-74
2023/07/07 05:28:15;;;;;;;10.27;4.30;;;16.00;34.30;;;;;;4994296;28;20442;-72
2023/07/07 05:30:41;;;;;;;7.07;3.80;;;16.10;34.60;;;;;;4994704;28;20390;-73
2023/07/07 05:33:08;;;;;;;6.60;3.40;;;16.20;34.00;;;;;;4994624;28;20414;-74
2023/07/07 05:35:33;;;;;;;8.87;3.50;;;16.30;34.00;;;;;;4994765;28;20405;-73
2023/07/07 05:38:00;;;;;;;7.10;3.93;;;16.40;32.70;;;;;;4994572;28;20871;-74
2023/07/07 05:40:26;;;;;;;7.10;3.72;;;16.50;32.70;;;;;;4994780;28;20387;-74
2023/07/07 05:42:52;;;;;;;8.60;3.55;;;16.80;32.20;;;;;;4994349;28;20405;-74
2023/07/07 05:45:17;;;;;;;7.10;3.40;;;16.80;32.10;;;;;;4994359;28;20386;-74
2023/07/07 05:47:43;;;;;;;8.97;3.93;;;16.80;31.80;;;;;;4994045;28;20425;-74
2023/07/07 05:50:09;;;;;;;6.40;3.40;;;16.90;31.90;;;;;;4994526;28;20391;-74
2023/07/07 05:52:34;;;;;;;10.55;3.47;;;16.90;32.00;;;;;;4994075;28;20406;-74
2023/07/07 05:55:02;;;;;;;11.00;3.70;;;17.00;32.00;;;;;;4994410;28;20899;-74
2023/07/07 05:57:28;;;;;;;7.90;3.63;;;17.00;30.80;;;;;;4993983;28;20393;-74
2023/07/07 05:59:54;;;;;;;8.75;3.60;;;17.10;31.00;;;;;;4993612;28;20743;-74
2023/07/07 06:02:20;;;;;;;11.17;3.27;;;17.20;31.00;;;;;;4993926;28;20387;-74
2023/07/07 06:04:45;;;;;;;7.10;3.22;;;17.30;30.20;;;;;;4993819;28;20390;-73
2023/07/07 06:07:11;;;;;;;6.40;3.63;;;17.50;29.50;;;;;;4993874;28;20918;-73
2023/07/07 06:09:36;;;;;;;9.10;3.40;;;17.50;29.20;;;;;;4994219;28;20752;-73
2023/07/07 06:12:02;;;;;;;7.63;3.40;;;17.60;28.60;;;;;;4993741;28;20400;-74
2023/07/07 06:14:28;;;;;;;11.52;3.80;;;17.80;28.50;;;;;;4993829;28;20471;-74
2023/07/07 06:16:53;;;;;;;10.57;4.10;;;17.80;27.90;;;;;;4995744;28;20386;-74
2023/07/07 06:19:19;;;;;;;8.15;3.83;;;18.00;28.00;;;;;;4993681;28;20383;-74
2023/07/07 06:21:45;;;;;;;7.37;3.70;;;18.10;27.80;;;;;;4993603;28;20403;-74
2023/07/07 06:24:10;;;;;;;5.33;3.17;;;18.30;27.00;;;;;;4993848;28;20386;-75
2023/07/07 06:26:36;;;;;;;8.63;3.38;;;18.40;26.40;;;;;;4993409;28;20465;-74
2023/07/07 06:29:01;;;;;;;7.77;3.60;;;18.50;26.60;;;;;;4993290;28;20481;-74
2023/07/07 06:31:27;;;;;;;6.53;3.17;;;18.70;26.10;;;;;;4993174;28;20887;-74
2023/07/07 06:33:52;;;;;;;10.50;3.25;;;18.80;26.40;;;;;;4994204;28;20899;-75
2023/07/07 06:36:18;;;;;;;10.93;3.42;;;18.90;24.90;;;;;;4993809;28;20386;-73
2023/07/07 06:38:44;;;;;;;7.77;2.70;;;19.00;24.60;;;;;;4993432;28;20879;-74
2023/07/07 06:41:15;;;;;;;5.88;2.70;;;19.20;23.70;;;;;;4993276;28;20799;-75
2023/07/07 06:43:41;;;;;;;6.47;2.87;;;19.30;23.30;;;;;;4991789;28;20441;-74
2023/07/07 06:46:10;;;;;;;8.33;2.80;;;19.50;22.60;;;;;;4993301;28;20433;-76
2023/07/07 06:48:35;;;;;;;4.30;2.60;;;19.50;22.50;;;;;;4993812;28;20390;-74
2023/07/07 06:51:01;;;;;;;6.63;2.87;;;19.70;21.30;;;;;;4991562;28;20421;-73
2023/07/07 06:53:26;;;;;;;3.97;2.85;;;19.70;20.10;;;;;;4992928;28;20513;-73
2023/07/07 06:55:52;;;;;;;5.00;2.40;;;19.90;20.20;;;;;;4993102;28;20390;-74
2023/07/07 06:58:20;;;;;;;5.18;2.80;;;20.00;19.80;;;;;;5023733;22;20453;-73
2023/07/07 07:00:46;;;;;;;6.30;2.65;;;20.20;20.20;;;;;;5034138;28;20476;-74
2023/07/07 07:03:11;;;;;;;3.40;2.00;;;20.30;19.20;;;;;;5051532;28;20480;-74
2023/07/07 07:05:38;;;;;;;4.05;2.30;;;20.30;18.00;;;;;;5051787;28;20469;-74
2023/07/07 07:08:04;;;;;;;4.03;2.50;;;20.40;18.00;;;;;;5033643;28;20463;-74
2023/07/07 07:10:29;;;;;;;4.83;2.43;;;20.40;17.00;;;;;;5051573;28;20389;-73
2023/07/07 07:12:55;;;;;;;7.72;2.25;;;20.60;17.30;;;;;;5069383;22;20530;-71
2023/07/07 07:15:21;;;;;;;4.50;2.70;;;20.60;17.50;;;;;;5072118;28;20441;-71
2023/07/07 07:17:46;;;;;;;4.60;2.40;;;20.60;18.10;;;;;;5071750;28;20759;-75
2023/07/07 07:20:13;;;;;;;4.50;2.50;;;20.80;17.60;;;;;;5071596;28;20376;-70
2023/07/07 07:22:39;;;;;;;4.15;2.45;;;20.90;17.00;;;;;;5071176;28;20790;-70
2023/07/07 07:25:05;;;;;;;4.53;2.40;;;21.00;17.00;;;;;;5071399;28;20379;-72
2023/07/07 07:27:31;;;;;;;5.45;2.45;;;21.10;17.10;;;;;;5071282;28;20756;-71
2023/07/07 07:29:56;;;;;;;5.20;2.83;;;21.20;17.40;;;;;;5071253;28;20380;-72
2023/07/07 07:32:22;;;;;;;8.20;2.40;;;21.40;17.90;;;;;;5073803;28;20371;-72
2023/07/07 07:34:48;;;;;;;3.28;2.22;;;21.40;15.70;;;;;;5072484;28;20376;-72
2023/07/07 07:37:14;;;;;;;3.90;2.50;;;21.50;15.80;;;;;;5072619;28;20380;-71
2023/07/07 07:39:40;;;;;;;6.93;2.75;;;21.60;15.30;;;;;;5073646;28;20475;-71
2023/07/07 07:42:06;;;;;;;4.72;2.55;;;21.60;15.00;;;;;;5073819;28;20407;-71
2023/07/07 07:44:31;;;;;;;5.63;2.70;;;21.70;14.90;;;;;;5072527;28;20388;-72
2023/07/07 07:46:58;;;;;;;7.10;2.30;;;21.90;14.80;;;;;;5071443;28;20840;-72
2023/07/07 07:49:25;;;;;;;3.63;2.20;;;21.90;14.60;;;;;;5071886;28;20387;-71
2023/07/07 07:51:51;;;;;;;7.47;2.70;;;22.20;14.70;;;;;;5071524;28;20384;-72
2023/07/07 07:54:18;;;;;;;3.05;2.20;;;22.30;14.50;;;;;;5071427;28;20411;-72
2023/07/07 07:56:44;;;;;;;5.07;2.40;;;22.20;13.80;;;;;;5071416;28;20430;-71
2023/07/07 07:59:10;;;;;;;6.40;2.17;;;22.20;13.90;;;;;;5053223;28;20400;-72
2023/07/07 08:01:35;;;;;;;5.67;2.40;;;22.30;13.60;;;;;;5070924;28;20395;-72
2023/07/07 08:04:03;;;;;;;6.40;2.22;;;22.30;14.10;;;;;;5071124;28;20422;-71
2023/07/07 08:06:29;;;;;;;6.03;2.10;;;22.40;13.40;;;;;;5070543;28;20474;-71
2023/07/07 08:08:54;;;;;;;5.07;2.40;;;22.50;13.60;;;;;;5070600;28;20419;-71
2023/07/07 08:11:47;;;;;;;9.80;2.80;;;22.70;13.90;;;;;;5070467;28;20426;-71
2023/07/07 08:14:19;;;;;;;4.20;2.20;;;22.70;13.70;;;;;;5062752;28;20756;-71
2023/07/07 08:16:46;;;;;;;2.85;2.10;;;22.80;13.60;;;;;;5070592;28;20375;-71
2023/07/07 08:19:12;;;;;;;3.63;2.00;;;22.80;13.40;;;;;;5052695;28;20403;-72
2023/07/07 08:21:37;;;;;;;7.20;2.80;;;22.80;12.70;;;;;;5069888;28;20372;-72
2023/07/07 08:24:04;;;;;;;7.80;2.90;;;22.90;14.00;;;;;;5070623;28;20391;-71
2023/07/07 08:26:29;;;;;;;5.38;2.60;;;23.00;13.30;;;;;;5070672;28;20376;-71
2023/07/07 08:28:55;;;;;;;6.17;2.20;;;23.10;12.60;;;;;;5070885;28;20453;-72
2023/07/07 08:31:20;;;;;;;3.80;2.50;;;23.00;12.60;;;;;;5070444;28;20796;-71
2023/07/07 08:33:46;;;;;;;6.17;2.40;;;23.20;12.80;;;;;;5070522;28;20408;-72
2023/07/07 08:36:12;;;;;;;6.32;2.30;;;23.40;13.10;;;;;;5070516;28;20737;-70
2023/07/07 08:38:38;;;;;;;5.60;2.50;;;23.60;12.00;;;;;;5070581;28;20371;-71
2023/07/07 08:41:04;;;;;;;5.20;2.50;;;23.60;11.60;;;;;;5070268;28;20787;-71
2023/07/07 08:43:30;;;;;;;4.47;2.30;;;23.70;11.00;;;;;;5070340;28;20390;-71
2023/07/07 08:46:17;;;;;;;8.00;2.30;;;23.80;11.10;;;;;;5070363;28;20418;-69
2023/07/07 08:48:57;;;;;;;3.13;2.20;;;23.90;11.70;;;;;;5069958;28;20442;-72
2023/07/07 08:51:42;;;;;;;3.65;2.20;;;24.10;10.50;;;;;;5070282;28;20395;-72
2023/07/07 08:54:49;;;;;;;2.95;2.20;;;24.10;10.80;;;;;;5070340;28;20459;-70
2023/07/07 08:57:17;;;;;;;3.45;2.20;;;24.20;11.00;;;;;;5029512;28;20406;-72
2023/07/07 09:00:04;;;;;;;3.55;2.00;;;24.20;9.90;;;;;;5064951;28;20458;-71
2023/07/07 09:03:02;;;;;;;5.30;2.30;;;24.40;10.10;;;;;;5054771;28;20392;-71
2023/07/07 09:05:59;;;;;;;4.13;2.33;;;24.50;8.90;;;;;;5067124;28;20423;-69
2023/07/07 09:08:51;;;;;;;3.95;2.20;;;24.50;8.80;;;;;;5076173;28;20383;-71
2023/07/07 09:11:27;;;;;;;8.18;2.60;;;24.60;8.60;;;;;;5071408;28;20418;-71
2023/07/07 09:13:55;;;;;;;6.30;2.40;;;24.60;8.30;;;;;;5071237;28;20886;-71
2023/07/07 09:16:26;;;;;;;4.10;3.17;;;24.70;8.90;;;;;;5070611;28;20384;-71
2023/07/07 09:19:00;;;;;;;5.93;2.50;;;24.80;8.20;;;;;;5052568;28;20399;-71
2023/07/07 09:21:43;;;;;;;5.33;2.20;;;24.90;8.00;;;;;;5069959;28;20396;-71
2023/07/07 09:24:21;;;;;;;2.88;2.00;;;25.00;7.00;;;;;;5070284;28;20843;-70
2023/07/07 09:26:49;;;;;;;3.67;2.15;;;25.00;8.00;;;;;;5052398;28;20386;-71
2023/07/07 09:29:24;;;;;;;5.67;2.50;;;25.10;8.00;;;;;;5070565;28;20383;-72
2023/07/07 09:31:50;;;;;;;4.55;2.60;;;25.20;8.20;;;;;;5070725;28;20947;-71
2023/07/07 09:34:16;;;;;;;6.70;2.30;;;25.30;7.70;;;;;;5073075;28;20504;-71
2023/07/07 09:36:59;;;;;;;2.85;2.10;;;25.40;7.40;;;;;;5075388;28;20898;-70
2023/07/07 09:39:45;;;;;;;4.47;2.28;;;25.40;6.10;;;;;;5082114;28;20408;-73
2023/07/07 09:42:16;;;;;;;4.70;2.90;;;25.40;5.10;;;;;;5080382;28;20376;-72
2023/07/07 09:45:08;;;;;;;7.30;2.22;;;25.50;5.40;;;;;;5074168;28;20732;-72
2023/07/07 09:47:51;;;;;;;2.80;2.30;;;25.50;4.80;;;;;;5073335;28;20380;-71
2023/07/07 09:50:24;;;;;;;3.42;2.50;;;25.60;4.90;;;;;;5073510;28;20426;-72
2023/07/07 09:52:56;;;;;;;6.22;2.30;;;25.70;5.40;;;;;;5073148;28;20895;-71
2023/07/07 09:55:25;;;;;;;5.47;2.53;;;25.80;5.60;;;;;;5073206;28;20376;-72
2023/07/07 09:57:58;;;;;;;5.00;2.30;;;25.80;5.70;;;;;;5074228;28;20376;-71
2023/07/07 10:00:27;;;;;;;3.40;3.10;;;25.90;3.80;;;;;;5073071;28;20463;-72
2023/07/07 10:02:54;;;;;;;4.32;2.65;;;25.90;3.60;;;;;;5073017;28;20525;-71
2023/07/07 10:05:25;;;;;;;4.45;2.92;;;25.90;3.90;;;;;;5072798;28;20388;-72
2023/07/07 10:07:53;;;;;;;4.35;2.55;;;26.00;4.10;;;;;;5073151;28;20383;-71
2023/07/07 10:10:18;;;;;;;5.82;2.60;;;26.10;4.20;;;;;;5073159;28;20433;-70
2023/07/07 10:12:46;;;;;;;3.60;2.70;;;26.00;4.30;;;;;;5072489;28;20404;-72
2023/07/07 10:15:27;;;;;;;4.20;3.00;;;26.20;3.50;;;;;;5073157;28;20848;-70
2023/07/07 10:18:15;;;;;;;7.07;3.67;;;26.30;3.50;;;;;;5072995;28;20667;-71
2023/07/07 10:20:41;;;;;;;4.68;3.00;;;26.30;3.70;;;;;;5072863;28;20492;-71
2023/07/07 10:23:11;;;;;;;4.80;3.20;;;26.50;2.80;;;;;;5072791;28;20801;-71
2023/07/07 10:25:39;;;;;;;4.32;3.00;;;26.50;3.40;;;;;;5072841;28;20460;-72
2023/07/07 10:28:13;;;;;;;4.28;2.70;;;26.60;3.60;;;;;;5054977;28;20525;-72
2023/07/07 10:30:40;;;;;;;4.85;2.70;;;26.60;3.30;;;;;;5072980;28;20395;-72
2023/07/07 10:33:09;;;;;;;6.07;2.75;;;26.70;3.50;;;;;;5072434;28;20403;-71
2023/07/07 10:35:35;;;;;;;4.35;2.72;;;26.70;2.80;;;;;;5072683;28;20827;-72
2023/07/07 10:38:04;;;;;;;6.30;2.60;;;26.60;1.80;;;;;;5072575;28;20372;-71
2023/07/07 10:40:30;;;;;;;7.35;2.70;;;26.50;2.10;;;;;;5072436;28;20383;-72
2023/07/07 10:42:57;;;;;;;4.32;2.70;;;26.60;1.80;;;;;;5072422;28;20449;-71
2023/07/07 10:45:23;;;;;;;5.18;2.75;;;26.70;3.10;;;;;;5071718;28;20383;-72
2023/07/07 10:47:49;;;;;;;4.05;2.70;;;26.80;2.80;;;;;;5072866;28;20890;-72
2023/07/07 10:50:18;;;;;;;4.78;3.22;;;26.80;2.50;;;;;;5073144;28;20384;-71
2023/07/07 10:53:02;;;;;;;10.18;3.15;;;27.00;2.90;;;;;;5072073;28;20828;-72
2023/07/07 10:55:43;;;;;;;4.28;2.60;;;27.00;2.40;;;;;;5071823;28;20808;-72
2023/07/07 10:58:27;;;;;;;3.35;2.70;;;27.00;1.90;;;;;;5072878;28;20418;-72
2023/07/07 11:00:56;;;;;;;4.10;2.70;;;27.10;1.90;;;;;;5071847;28;20394;-71
2023/07/07 11:03:59;;;;;;;3.33;2.60;;;27.00;1.10;;;;;;5071983;28;20449;-71
2023/07/07 11:06:35;;;;;;;4.00;2.80;;;26.90;1.60;;;;;;5072431;28;20408;-71
2023/07/07 11:09:40;;;;;;;3.80;3.03;;;26.90;1.60;;;;;;5071902;28;20458;-71
2023/07/07 11:12:32;;;;;;;4.47;2.92;;;27.00;1.90;;;;;;5029141;28;20395;-72
2023/07/07 11:15:13;;;;;;;4.23;3.10;;;27.10;1.00;;;;;;5029717;28;20922;-72
2023/07/07 11:18:05;;;;;;;4.00;2.83;;;27.20;1.00;;;;;;5060806;28;20463;-71
2023/07/07 11:20:43;;;;;;;6.95;3.00;;;27.50;1.00;;;;;;5071580;28;20404;-70
2023/07/07 11:23:20;;;;;;;3.80;2.80;;;27.40;1.00;;;;;;5071276;28;20399;-72
2023/07/07 11:25:52;;;;;;;4.53;2.60;;;27.30;1.00;;;;;;5071508;28;20379;-71
2023/07/07 11:28:38;;;;;;;3.88;2.65;;;27.40;1.00;;;;;;5072186;28;20423;-72
2023/07/07 11:31:38;;;;;;;5.10;3.00;;;27.40;2.00;;;;;;5071469;28;20467;-71
2023/07/07 11:34:36;;;;;;;4.20;3.10;;;27.40;1.00;;;;;;5071014;28;20872;-71
2023/07/07 11:37:07;;;;;;;4.40;2.80;;;27.60;1.60;;;;;;5034480;28;20871;-71
2023/07/07 11:39:44;;;;;;;5.30;4.80;;;27.80;1.00;;;;;;5071277;28;20368;-73
2023/07/07 11:42:39;;;;;;;6.63;3.50;;;27.80;1.00;;;;;;5070984;28;20387;-72
2023/07/07 11:45:10;;;;;;;6.70;2.95;;;27.90;1.00;;;;;;5071596;28;20375;-72
2023/07/07 11:48:00;;;;;;;5.78;3.40;;;28.00;1.00;;;;;;5071357;28;20372;-72
2023/07/07 11:50:46;;;;;;;5.32;3.05;;;28.00;1.00;;;;;;5072030;28;20975;-73
2023/07/07 11:53:49;;;;;;;3.35;2.50;;;28.00;1.00;;;;;;5071504;28;20937;-72
2023/07/07 11:56:40;;;;;;;4.25;2.60;;;28.10;1.00;;;;;;5071280;28;20383;-72
2023/07/07 11:59:43;;;;;;;5.30;3.03;;;28.00;1.00;;;;;;5070942;28;20379;-73
2023/07/07 12:02:20;;;;;;;4.47;2.60;;;28.10;1.00;;;;;;5070502;28;20379;-73
2023/07/07 12:04:46;;;;;;;4.78;2.97;;;28.20;1.00;;;;;;5070850;28;20740;-71
2023/07/07 12:07:32;;;;;;;3.70;2.80;;;28.20;1.00;;;;;;5052729;28;20384;-73
2023/07/07 12:10:07;;;;;;;3.38;2.88;;;28.40;1.00;;;;;;5070856;28;20860;-73
2023/07/07 12:12:38;;;;;;;5.25;2.75;;;28.40;1.00;;;;;;5070167;28;20475;-73
2023/07/07 12:15:19;;;;;;;4.57;2.90;;;28.40;1.00;;;;;;5070709;28;20380;-72
2023/07/07 12:17:50;;;;;;;5.85;3.85;;;28.60;1.00;;;;;;5070455;28;20375;-73
2023/07/07 12:20:30;;;;;;;4.57;2.65;;;28.80;1.00;;;;;;5070565;28;20406;-71
2023/07/07 12:23:00;;;;;;;4.85;2.67;;;28.90;1.00;;;;;;5052382;28;20457;-72
2023/07/07 12:25:28;;;;;;;4.72;2.50;;;28.80;1.00;;;;;;5070076;28;20427;-72
2023/07/07 12:27:55;;;;;;;4.72;3.00;;;28.60;1.00;;;;;;5070384;28;20394;-74
2023/07/07 12:30:20;;;;;;;4.97;2.80;;;28.70;1.00;;;;;;5070148;28;20387;-73
2023/07/07 12:32:46;;;;;;;4.10;2.33;;;28.80;1.00;;;;;;5070035;28;20918;-72
2023/07/07 12:35:27;;;;;;;3.58;2.80;;;28.70;1.00;;;;;;5071021;28;20406;-71
2023/07/07 12:37:55;;;;;;;3.90;2.87;;;28.90;1.00;;;;;;5070629;28;20808;-71
2023/07/07 12:40:22;;;;;;;5.30;2.70;;;29.00;1.00;;;;;;5070493;28;20415;-71
2023/07/07 12:43:18;;;;;;;3.97;2.60;;;29.10;1.00;;;;;;5070020;28;20449;-72
2023/07/07 12:45:45;;;;;;;4.50;2.60;;;29.00;1.00;;;;;;5070242;28;20718;-72
2023/07/07 12:48:20;;;;;;;4.70;2.50;;;29.10;1.00;;;;;;5072732;28;20410;-73
2023/07/07 12:50:48;;;;;;;2.75;2.50;;;29.10;1.00;;;;;;5060845;28;20417;-73
2023/07/07 12:53:41;;;;;;;3.67;2.80;;;29.10;1.00;;;;;;5073976;28;20438;-73
2023/07/07 12:56:07;;;;;;;4.50;2.87;;;29.10;1.00;;;;;;5072697;28;20395;-73
2023/07/07 12:58:38;;;;;;;7.25;3.00;;;29.10;1.00;;;;;;5072372;28;20449;-72
2023/07/07 13:01:14;;;;;;;4.57;2.67;;;29.10;1.00;;;;;;5069982;28;20441;-72
2023/07/07 13:04:00;;;;;;;3.58;2.70;;;29.00;1.00;;;;;;5070380;28;20798;-72
2023/07/07 13:06:31;;;;;;;3.00;2.70;;;29.00;1.00;;;;;;5069641;28;20391;-73
2023/07/07 13:09:12;;;;;;;4.15;2.63;;;29.10;1.00;;;;;;5071597;28;20391;-72